Terminal Aerodrome Forecast
Issued by NWS Louisville, KY

Home | Current Version | Previous Version | Text Only | Print | Product List | Glossary On
Versions: 1 2 3 4 5 6 7 8 9 10 11 12 13 14 15 16 17 18 19
000
FTUS43 KLMK 270945 AAA
TAFBWG
TAF AMD
KBWG 270945Z 2710/2806 22006KT P6SM SCT030 BKN050
      TEMPO 2713/2716 BKN015
     FM271600 23007KT P6SM VCTS SCT025CB BKN035
      TEMPO 2717/2721 VRB15G30KT 3SM TSRA BKN025CB
     FM280000 VRB05KT P6SM SCT030 BKN250=

USA.gov is the U.S. government's official web portal to all federal, state and local government web resources and services.